Main page
METAR-TAF:

METAR-TAF

Airports :

Juan Vicente Gómez International Airport

San Antonio del Táchira, Venezuela

latitude: 07-51N, longitude: 072-27W, elevation: 377 m

Current weather observation

The report was made 1 hour and 11 minutes ago, at 23:03 UTC
Wind 6 kt from the Southeast
Temperature 31°C
Humidity 46%
Pressure 1009 hPa

METAR: SVSA 242303Z AUTO 14006KT NCD 31/18 Q1009

Time: 20:14 (00:14 UTC)

Forecast

The report was made 2 hours and 14 minutes ago, at 22:00 UTC
Forecast valid from 25 at 00 UTC to 26 at 00 UTC
Wind 4 kt from the South/Southeast
Visibility 10 km or more
Temporary
from 25 at 03 UTC to 25 at 07 UTC
Wind kt from the North
Visibility 10 km or more
Scattered clouds at a height of 1600 ft
Scattered clouds at a height of 10000 ft

TAF: SVSA 242200Z 2500/2600 16004KT 9999 SCT16 TX34/2518Z TN21/2508Z TN23/2507Z TEMPO 2503/2507 00000KT 9999 SCT016 SCT100

Weather observations and forecasts of more than 4000 airports (METAR and TAF reports).

The available stations are represented by yellow and red dots on the map.

Hover mouse over dot to see the name of the station.

Then click to see weather observations and forecasts.

To change the map : click on the green buttons with a black cross to zoom in, on the green button with a dash to zoom out, or on the green arrows for adjacent maps.


METAR-TAF: